Time;durP1;ratioP1;P1;durP2;ratioP2;P2;SDS_P1;SDS_P2;PMS_P1;PMS_P2;Temp;Humidity;BMP_temperature;BMP_pressure;BME280_temperature;BME280_humidity;BME280_pressure;Samples;Min_cycle;Max_cycle;Signal;HPM_P1;HPM_P2
2023/12/25 00:00:15;;;;;;;;;;;;;;;-144.99;97.74;52625.44;5131086;27;19928;-69
2023/12/25 00:02:41;;;;;;;;;;;;;;;-144.99;97.78;52637.66;5133665;28;19999;-68
2023/12/25 00:05:08;;;;;;;;;;;;;;;-144.99;97.79;52603.00;5129982;27;19977;-68
2023/12/25 00:07:35;;;;;;;;;;;;;;;-144.99;97.43;52615.25;5135059;27;19935;-68
2023/12/25 00:10:01;;;;;;;;;;;;;;;-144.99;97.08;52611.16;5129650;27;19963;-68
2023/12/25 00:12:28;;;;;;;;;;;;;;;-144.99;96.87;52554.09;5138014;27;20011;-69
2023/12/25 00:14:55;;;;;;;;;;;;;;;-144.99;96.39;52611.16;5128512;27;20357;-68
2023/12/25 00:17:22;;;;;;;;;;;;;;;-144.99;95.60;52594.84;5134030;27;20426;-68
2023/12/25 00:19:48;;;;;;;;;;;;;;;-144.99;95.88;52582.63;5139007;27;19975;-68
2023/12/25 00:22:15;;;;;;;;;;;;;;;-144.99;95.16;52615.25;5143834;27;20249;-68
2023/12/25 00:24:41;;;;;;;;;;;;;;;-144.99;95.46;52627.47;5128756;27;20422;-69
2023/12/25 00:27:08;;;;;;;;;;;;;;;-144.99;94.85;52588.75;5138941;27;20387;-68
2023/12/25 00:29:34;;;;;;;;;;;;;;;-144.99;95.41;52596.88;5134314;27;19955;-68
2023/12/25 00:32:02;;;;;;;;;;;;;;;-144.99;95.46;52639.69;5139178;27;20023;-69
2023/12/25 00:34:29;;;;;;;;;;;;;;;-144.99;95.11;52623.38;5133369;27;20031;-68
2023/12/25 00:36:55;;;;;;;;;;;;;;;-144.99;95.21;52635.63;5134584;27;19931;-68
2023/12/25 00:39:22;;;;;;;;;;;;;;;-144.99;94.92;52627.47;5150198;27;19923;-69
2023/12/25 00:41:48;;;;;;;;;;;;;;;-144.99;94.72;52594.84;5152362;27;19923;-68
2023/12/25 00:44:15;;;;;;;;;;;;;;;-144.99;94.74;52611.16;5135476;27;19984;-69
2023/12/25 00:46:42;;;;;;;;;;;;;;;-144.99;94.57;52619.31;5128701;27;20263;-69
2023/12/25 00:49:11;;;;;;;;;;;;;;;-144.99;94.92;52660.09;5141475;27;19923;-69
2023/12/25 00:51:37;;;;;;;;;;;;;;;-144.99;94.99;52631.53;5137079;27;20408;-69
2023/12/25 00:54:04;;;;;;;;;;;;;;;-144.99;94.31;52635.63;5138451;27;19974;-68
2023/12/25 00:56:30;;;;;;;;;;;;;;;-144.99;94.15;52619.31;5132839;27;19953;-69
2023/12/25 00:58:57;;;;;;;;;;;;;;;-144.99;94.45;52647.84;5131435;27;20338;-69
2023/12/25 01:01:23;;;;;;;;;;;;;;;-144.99;94.50;52651.94;5132260;27;20289;-69
2023/12/25 01:03:50;;;;;;;;;;;;;;;-144.99;94.72;52611.16;5134801;27;19981;-68
2023/12/25 01:06:18;;;;;;;;;;;;;;;-144.99;94.50;52605.03;5136313;27;20444;-68
2023/12/25 01:08:44;;;;;;;;;;;;;;;-144.99;94.51;52635.63;5136188;27;19923;-68
2023/12/25 01:11:11;;;;;;;;;;;;;;;-144.99;94.79;52615.25;5146555;27;19931;-67
2023/12/25 01:13:37;;;;;;;;;;;;;;;-144.99;94.95;52582.63;5139618;27;19924;-69
2023/12/25 01:16:04;;;;;;;;;;;;;;;-144.99;94.64;52639.69;5131803;27;19928;-69
2023/12/25 01:18:31;;;;;;;;;;;;;;;-144.99;94.31;52615.25;5149992;27;19966;-68
2023/12/25 01:20:57;;;;;;;;;;;;;;;-144.99;94.67;52623.38;5138532;27;19955;-68
2023/12/25 01:23:25;;;;;;;;;;;;;;;-144.99;94.09;52631.53;5139957;27;20129;-68
2023/12/25 01:25:51;;;;;;;;;;;;;;;-144.99;93.99;52651.94;5132351;27;19976;-68
2023/12/25 01:28:18;;;;;;;;;;;;;;;-144.99;93.82;52623.38;5134657;27;19923;-69
2023/12/25 01:30:44;;;;;;;;;;;;;;;-144.99;93.92;52647.84;5132819;27;20283;-69
2023/12/25 01:33:11;;;;;;;;;;;;;;;-144.99;93.69;52627.47;5132098;27;20007;-69
2023/12/25 01:35:37;;;;;;;;;;;;;;;-144.99;93.63;52613.19;5132461;27;20350;-69
2023/12/25 01:38:04;;;;;;;;;;;;;;;-144.99;93.62;52615.25;5132315;27;19924;-67
2023/12/25 01:40:32;;;;;;;;;;;;;;;-144.99;93.81;52586.69;5132227;27;19927;-68
2023/12/25 01:42:58;;;;;;;;;;;;;;;-144.99;94.06;52598.94;5130467;27;20240;-69
2023/12/25 01:45:25;;;;;;;;;;;;;;;-144.99;94.09;52627.47;5131921;27;19923;-69
2023/12/25 01:47:51;;;;;;;;;;;;;;;-144.99;94.04;52639.69;5132370;27;20100;-68
2023/12/25 01:50:18;;;;;;;;;;;;;;;-144.99;94.01;52625.44;5132099;27;19927;-68
2023/12/25 01:52:45;;;;;;;;;;;;;;;-144.99;94.04;52653.97;5139552;27;20377;-69
2023/12/25 01:55:12;;;;;;;;;;;;;;;-144.99;94.04;52623.38;5143696;27;19934;-68
2023/12/25 01:57:41;;;;;;;;;;;;;;;-144.99;94.36;52619.31;5134529;27;19923;-68
2023/12/25 02:00:08;;;;;;;;;;;;;;;-144.99;94.43;52623.38;5144358;27;19923;-68
2023/12/25 02:02:34;;;;;;;;;;;;;;;-144.99;94.98;52611.16;5145447;27;20630;-68
2023/12/25 02:05:01;;;;;;;;;;;;;;;-144.99;95.22;52631.53;5133202;27;19973;-68
2023/12/25 02:07:28;;;;;;;;;;;;;;;-144.99;95.42;52613.19;5147071;27;19966;-69
2023/12/25 02:09:54;;;;;;;;;;;;;;;-144.99;95.24;52635.63;5144168;27;19923;-68
2023/12/25 02:12:21;;;;;;;;;;;;;;;-144.99;94.66;52584.66;5137610;27;20018;-69
2023/12/25 02:14:49;;;;;;;;;;;;;;;-144.99;95.08;52668.22;5122724;27;20039;-69
2023/12/25 02:17:16;;;;;;;;;;;;;;;-144.99;95.38;52651.94;5139672;27;20359;-69
2023/12/25 02:19:43;;;;;;;;;;;;;;;-144.99;95.23;52651.94;5123411;27;20003;-69
2023/12/25 02:22:10;;;;;;;;;;;;;;;-144.99;95.41;52607.09;5138009;27;19930;-69
2023/12/25 02:24:37;;;;;;;;;;;;;;;-144.99;95.74;52647.84;5139764;27;19966;-68
2023/12/25 02:27:06;;;;;;;;;;;;;;;-144.99;95.30;52647.84;5137281;27;19966;-69
2023/12/25 02:29:33;;;;;;;;;;;;;;;-144.99;95.33;52649.88;5142239;27;20092;-69
2023/12/25 02:31:59;;;;;;;;;;;;;;;-144.99;95.30;52598.94;5130543;27;19940;-69
2023/12/25 02:34:26;;;;;;;;;;;;;;;-144.99;95.16;52594.84;5132507;27;19962;-69
2023/12/25 02:36:52;;;;;;;;;;;;;;;-144.99;94.88;52615.25;5151712;27;19970;-69
2023/12/25 02:39:19;;;;;;;;;;;;;;;-144.99;94.47;52615.25;5128043;27;19924;-69
2023/12/25 02:41:45;;;;;;;;;;;;;;;-144.99;94.25;52607.09;5136664;27;19972;-69
2023/12/25 02:44:17;;;;;;;;;;;;;;;-144.99;93.81;52660.09;5129342;27;20372;-68
2023/12/25 02:46:43;;;;;;;;;;;;;;;-144.99;93.75;52627.47;5127807;27;20030;-69
2023/12/25 02:49:10;;;;;;;;;;;;;;;-144.99;93.54;52623.38;5130669;27;19924;-68
2023/12/25 02:51:36;;;;;;;;;;;;;;;-144.99;94.29;52621.34;5137883;27;20022;-69
2023/12/25 02:54:03;;;;;;;;;;;;;;;-144.99;94.04;52647.84;5137055;27;19968;-68
2023/12/25 02:56:29;;;;;;;;;;;;;;;-144.99;93.96;52662.13;5130827;27;20059;-66
2023/12/25 02:58:56;;;;;;;;;;;;;;;-144.99;93.76;52607.09;5128934;27;20005;-68
2023/12/25 03:01:24;;;;;;;;;;;;;;;-144.99;94.50;52627.47;5131162;27;20283;-68
2023/12/25 03:03:51;;;;;;;;;;;;;;;-144.99;93.85;52641.72;5138475;27;20273;-69
2023/12/25 03:06:17;;;;;;;;;;;;;;;-144.99;94.32;52643.78;5140468;27;19953;-69
2023/12/25 03:08:43;;;;;;;;;;;;;;;-144.99;95.09;52643.78;5134324;27;20332;-68
2023/12/25 03:11:10;;;;;;;;;;;;;;;-144.99;96.10;52656.00;5134536;27;20006;-68
2023/12/25 03:13:36;;;;;;;;;;;;;;;-144.99;96.60;52623.38;5128775;27;20006;-68
2023/12/25 03:16:04;;;;;;;;;;;;;;;-144.99;97.37;52623.38;5130246;27;20013;-68
2023/12/25 03:18:32;;;;;;;;;;;;;;;-144.99;96.99;52607.09;5130146;27;19986;-69
2023/12/25 03:20:59;;;;;;;;;;;;;;;-144.99;96.89;52639.69;5146526;27;19911;-68
2023/12/25 03:23:25;;;;;;;;;;;;;;;-144.99;96.31;52637.66;5164012;27;19924;-68
2023/12/25 03:25:52;;;;;;;;;;;;;;;-144.99;95.94;52660.09;5131185;27;19935;-68
2023/12/25 03:28:18;;;;;;;;;;;;;;;-144.99;95.79;52615.25;5143276;27;20047;-68
2023/12/25 03:30:45;;;;;;;;;;;;;;;-144.99;95.77;52623.38;5133342;27;20018;-69
2023/12/25 03:33:11;;;;;;;;;;;;;;;-144.99;96.31;52603.00;5142344;27;19977;-68
2023/12/25 03:35:39;;;;;;;;;;;;;;;-144.99;95.91;52639.69;5105272;22;20481;-75
2023/12/25 03:38:06;;;;;;;;;;;;;;;-144.99;96.70;52639.69;5068067;28;19970;-75
2023/12/25 03:40:33;;;;;;;;;;;;;;;-144.99;96.71;52631.53;5068561;28;20307;-76
2023/12/25 03:43:00;;;;;;;;;;;;;;;-144.99;96.76;52603.00;5066708;28;20384;-76
2023/12/25 03:45:26;;;;;;;;;;;;;;;-144.99;97.28;52647.84;5065081;28;20009;-76
2023/12/25 03:47:53;;;;;;;;;;;;;;;-144.99;96.61;52637.66;5067998;28;20038;-76
2023/12/25 03:50:19;;;;;;;;;;;;;;;-144.99;96.29;52596.88;5067592;28;19924;-75
2023/12/25 03:52:47;;;;;;;;;;;;;;;-144.99;97.38;52619.31;5058622;28;19929;-75
2023/12/25 03:55:13;;;;;;;;;;;;;;;-144.99;96.68;52672.31;5060939;28;19940;-75
2023/12/25 03:57:40;;;;;;;;;;;;;;;-144.99;96.65;52651.94;5067435;28;20388;-76
2023/12/25 04:00:07;;;;;;;;;;;;;;;-144.99;96.64;52635.63;5067579;28;20376;-75
2023/12/25 04:02:33;;;;;;;;;;;;;;;-144.99;96.63;52627.47;5067500;28;20031;-75
2023/12/25 04:05:00;;;;;;;;;;;;;;;-144.99;96.36;52613.19;5078796;28;19924;-77
2023/12/25 04:07:26;;;;;;;;;;;;;;;-144.99;95.95;52647.84;5079290;28;20319;-76
2023/12/25 04:09:54;;;;;;;;;;;;;;;-144.99;95.85;52643.78;5061779;28;20035;-77
2023/12/25 04:12:20;;;;;;;;;;;;;;;-144.99;95.70;52598.94;5067387;28;19966;-75
2023/12/25 04:14:47;;;;;;;;;;;;;;;-144.99;96.03;52643.78;5059888;28;20065;-78
2023/12/25 04:17:13;;;;;;;;;;;;;;;-144.99;95.77;52631.53;5068561;28;19932;-75
2023/12/25 04:19:41;;;;;;;;;;;;;;;-144.99;95.46;52619.31;5066393;28;19924;-75
2023/12/25 04:22:07;;;;;;;;;;;;;;;-144.99;96.17;52647.84;5058258;28;19925;-75
2023/12/25 04:24:34;;;;;;;;;;;;;;;-144.99;96.27;52631.53;5062466;28;19935;-77
2023/12/25 04:27:01;;;;;;;;;;;;;;;-144.99;96.04;52598.94;5072230;28;20007;-75
2023/12/25 04:29:28;;;;;;;;;;;;;;;-144.99;95.58;52631.53;5061926;28;20027;-76
2023/12/25 04:31:54;;;;;;;;;;;;;;;-144.99;95.40;52643.78;5067564;28;20819;-77
2023/12/25 04:34:21;;;;;;;;;;;;;;;-144.99;95.84;52660.09;5064862;28;20027;-73
2023/12/25 04:36:47;;;;;;;;;;;;;;;-144.99;95.33;52574.47;5068159;28;20012;-76
2023/12/25 04:39:13;;;;;;;;;;;;;;;-144.99;96.29;52607.09;5058164;28;20325;-75
2023/12/25 04:41:40;;;;;;;;;;;;;;;-144.99;96.16;52643.78;5067571;28;20011;-75
2023/12/25 04:44:08;;;;;;;;;;;;;;;-144.99;95.93;52611.16;5062447;28;19932;-79
2023/12/25 04:46:34;;;;;;;;;;;;;;;-144.99;95.78;52668.22;5072140;28;19959;-76
2023/12/25 04:49:00;;;;;;;;;;;;;;;-144.99;96.01;52627.47;5069223;28;19924;-76
2023/12/25 04:51:27;;;;;;;;;;;;;;;-144.99;96.29;52660.09;5069292;28;19993;-77
2023/12/25 04:53:53;;;;;;;;;;;;;;;-144.99;96.05;52623.38;5072912;28;19964;-78
2023/12/25 04:56:20;;;;;;;;;;;;;;;-144.99;95.49;52656.00;5068034;28;20058;-76
2023/12/25 04:58:46;;;;;;;;;;;;;;;-144.99;95.39;52680.47;5058689;28;19955;-76
2023/12/25 05:01:14;;;;;;;;;;;;;;;-144.99;95.40;52627.47;5061584;28;20015;-77
2023/12/25 05:03:40;;;;;;;;;;;;;;;-144.99;95.32;52631.53;5065852;28;20019;-76
2023/12/25 05:06:07;;;;;;;;;;;;;;;-144.99;95.33;52668.22;5066572;28;20428;-77
2023/12/25 05:08:33;;;;;;;;;;;;;;;-144.99;96.54;52631.53;5061881;28;19931;-76
2023/12/25 05:11:00;;;;;;;;;;;;;;;-144.99;97.46;52676.38;5060110;28;20036;-80
2023/12/25 05:13:26;;;;;;;;;;;;;;;-144.99;98.61;52662.13;5069323;28;19960;-78
2023/12/25 05:15:53;;;;;;;;;;;;;;;-144.99;99.36;52586.69;5074878;28;19975;-75
2023/12/25 05:18:20;;;;;;;;;;;;;;;-144.99;99.72;52613.19;5071756;28;19996;-76
2023/12/25 05:20:47;;;;;;;;;;;;;;;-144.99;100.00;52647.84;5084502;28;19959;-77
2023/12/25 05:23:13;;;;;;;;;;;;;;;-144.99;100.00;52643.78;5079280;28;20471;-75
2023/12/25 05:25:40;;;;;;;;;;;;;;;-144.99;100.00;52641.72;5066455;28;19928;-76
2023/12/25 05:28:06;;;;;;;;;;;;;;;-144.99;100.00;52660.09;5074310;28;19935;-76
2023/12/25 05:30:33;;;;;;;;;;;;;;;-144.99;99.68;52635.63;5062676;28;19925;-75
2023/12/25 05:32:59;;;;;;;;;;;;;;;-144.99;98.75;52639.69;5076661;28;20007;-76
2023/12/25 05:35:27;;;;;;;;;;;;;;;-144.99;97.55;52645.81;5069905;28;20007;-76
2023/12/25 05:37:55;;;;;;;;;;;;;;;-144.99;97.90;52633.59;5072174;28;19928;-76
2023/12/25 05:40:22;;;;;;;;;;;;;;;-144.99;97.86;52600.97;5067600;28;19928;-75
2023/12/25 05:42:48;;;;;;;;;;;;;;;-144.99;97.78;52609.13;5058668;28;20355;-75
2023/12/25 05:45:15;;;;;;;;;;;;;;;-144.99;98.08;52643.78;5067742;28;20003;-75
2023/12/25 05:47:41;;;;;;;;;;;;;;;-144.99;97.90;52627.47;5064411;28;19975;-75
2023/12/25 05:50:09;;;;;;;;;;;;;;;-144.99;97.12;52631.53;5070606;28;19924;-75
2023/12/25 05:52:36;;;;;;;;;;;;;;;-144.99;97.32;52664.16;5069516;28;20019;-75
2023/12/25 05:55:03;;;;;;;;;;;;;;;-144.99;97.29;52605.03;5070497;28;20380;-77
2023/12/25 05:57:29;;;;;;;;;;;;;;;-144.99;97.20;52635.63;5070133;28;19925;-75
2023/12/25 05:59:56;;;;;;;;;;;;;;;-144.99;97.40;52619.31;5069487;28;20365;-76
2023/12/25 06:02:23;;;;;;;;;;;;;;;-144.99;97.41;52676.38;5068276;28;19928;-77
2023/12/25 06:04:49;;;;;;;;;;;;;;;-144.99;98.61;52623.38;5070854;28;19950;-76
2023/12/25 06:07:15;;;;;;;;;;;;;;;-144.99;100.00;52639.69;5062535;28;20048;-78
2023/12/25 06:09:44;;;;;;;;;;;;;;;-144.99;100.00;52627.47;5070124;28;19997;-76
2023/12/25 06:12:11;;;;;;;;;;;;;;;-144.99;100.00;52643.78;5072273;28;19928;-75
2023/12/25 06:14:37;;;;;;;;;;;;;;;-144.99;100.00;52641.72;5091714;28;19978;-75
2023/12/25 06:17:04;;;;;;;;;;;;;;;-144.99;100.00;52627.47;5086000;28;19970;-75
2023/12/25 06:19:31;;;;;;;;;;;;;;;-144.99;100.00;52668.22;5078771;28;19924;-75
2023/12/25 06:21:57;;;;;;;;;;;;;;;-144.99;100.00;52643.78;5082368;28;20022;-75
2023/12/25 06:24:24;;;;;;;;;;;;;;;-144.99;100.00;52635.63;5072734;28;20007;-76
2023/12/25 06:26:51;;;;;;;;;;;;;;;-144.99;99.26;52623.38;5071942;28;20454;-75
2023/12/25 06:29:18;;;;;;;;;;;;;;;-144.99;98.18;52664.16;5068744;28;20024;-75
2023/12/25 06:31:46;;;;;;;;;;;;;;;-144.99;97.63;52639.69;5075394;28;19982;-76
2023/12/25 06:34:12;;;;;;;;;;;;;;;-144.99;97.12;52647.84;5070016;28;20178;-76
2023/12/25 06:36:39;;;;;;;;;;;;;;;-144.99;97.00;52619.31;5075571;28;20007;-80
2023/12/25 06:39:05;;;;;;;;;;;;;;;-144.99;96.99;52623.38;5088925;28;20365;-80
2023/12/25 06:41:32;;;;;;;;;;;;;;;-144.99;96.92;52627.47;5082499;28;19963;-76
2023/12/25 06:44:00;;;;;;;;;;;;;;;-144.99;97.02;52639.69;5075138;28;19930;-76
2023/12/25 06:46:26;;;;;;;;;;;;;;;-144.99;97.33;52645.81;5072046;28;19929;-75
2023/12/25 06:48:52;;;;;;;;;;;;;;;-144.99;96.98;52623.38;5063267;28;20074;-76
2023/12/25 06:51:19;;;;;;;;;;;;;;;-144.99;97.60;52631.53;5064791;28;20023;-74
2023/12/25 06:53:45;;;;;;;;;;;;;;;-144.99;97.50;52647.84;5068686;28;19968;-76
2023/12/25 06:56:12;;;;;;;;;;;;;;;-144.99;97.98;52625.44;5063830;28;19968;-74
2023/12/25 06:58:39;;;;;;;;;;;;;;;-144.99;97.90;52676.38;5068924;28;20014;-77
2023/12/25 07:01:07;;;;;;;;;;;;;;;-144.99;98.84;52668.22;5062058;28;19935;-75
2023/12/25 07:03:33;;;;;;;;;;;;;;;-144.99;98.44;52643.78;5068672;28;19925;-75
2023/12/25 07:06:00;;;;;;;;;;;;;;;-144.99;98.79;52611.16;5066794;28;19928;-77
2023/12/25 07:08:27;;;;;;;;;;;;;;;-144.99;98.55;52643.78;5066729;28;20016;-75
2023/12/25 07:10:54;;;;;;;;;;;;;;;-144.99;98.46;52631.53;5061253;28;19982;-77
2023/12/25 07:13:20;;;;;;;;;;;;;;;-144.99;98.02;52641.72;5066893;28;20030;-75
2023/12/25 07:15:46;;;;;;;;;;;;;;;-144.99;97.38;52639.69;5075322;28;20009;-74
2023/12/25 07:18:14;;;;;;;;;;;;;;;-144.99;97.17;52629.50;5074372;28;19986;-75
2023/12/25 07:20:41;;;;;;;;;;;;;;;-144.99;96.74;52664.16;5064571;28;19925;-76
2023/12/25 07:23:07;;;;;;;;;;;;;;;-144.99;95.63;52639.69;5061103;28;20348;-75
2023/12/25 07:25:34;;;;;;;;;;;;;;;-144.99;94.51;52627.47;5068452;28;20025;-74
2023/12/25 07:28:00;;;;;;;;;;;;;;;-144.99;94.13;52713.09;5068979;28;19924;-77
2023/12/25 07:30:27;;;;;;;;;;;;;;;-144.99;93.76;52647.84;5068431;28;19925;-76
2023/12/25 07:32:53;;;;;;;;;;;;;;;-144.99;93.10;52649.88;5066463;28;20034;-77
2023/12/25 07:35:21;;;;;;;;;;;;;;;-144.99;92.88;52647.84;5072976;28;20009;-76
2023/12/25 07:37:48;;;;;;;;;;;;;;;-144.99;92.50;52643.78;5061410;28;20281;-76
2023/12/25 07:40:15;;;;;;;;;;;;;;;-144.99;92.60;52627.47;5076243;28;19981;-76
2023/12/25 07:42:41;;;;;;;;;;;;;;;-144.99;92.63;52672.31;5067441;28;20404;-78
2023/12/25 07:45:08;;;;;;;;;;;;;;;-144.99;92.63;52641.72;5074902;28;20015;-76
2023/12/25 07:47:35;;;;;;;;;;;;;;;-144.99;92.03;52643.78;5061879;28;19925;-75
2023/12/25 07:50:04;;;;;;;;;;;;;;;-144.99;92.26;52660.09;5065562;28;19971;-79
2023/12/25 07:52:32;;;;;;;;;;;;;;;-144.99;91.90;52656.00;5067554;28;20376;-77
2023/12/25 07:54:59;;;;;;;;;;;;;;;-144.99;91.91;52639.69;5082046;28;19947;-80
2023/12/25 07:57:25;;;;;;;;;;;;;;;-144.99;92.12;52688.63;5075856;28;20396;-75
2023/12/25 07:59:52;;;;;;;;;;;;;;;-144.99;92.50;52664.16;5064951;28;20441;-76
2023/12/25 08:02:18;;;;;;;;;;;;;;;-144.99;92.23;52688.63;5061182;28;19924;-76
2023/12/25 08:04:44;;;;;;;;;;;;;;;-144.99;92.70;52670.28;5068584;28;19986;-76
2023/12/25 08:07:11;;;;;;;;;;;;;;;-144.99;92.59;52653.97;5069451;28;20270;-75
2023/12/25 08:09:39;;;;;;;;;;;;;;;-144.99;92.75;52696.78;5068621;28;20430;-76
2023/12/25 08:12:06;;;;;;;;;;;;;;;-144.99;92.66;52631.53;5068734;28;19974;-76
2023/12/25 08:14:32;;;;;;;;;;;;;;;-144.99;93.43;52676.38;5057919;28;19974;-75
2023/12/25 08:16:58;;;;;;;;;;;;;;;-144.99;92.87;52651.94;5058059;28;20447;-77
2023/12/25 08:19:25;;;;;;;;;;;;;;;-144.99;93.29;52643.78;5063869;28;19980;-78
2023/12/25 08:21:51;;;;;;;;;;;;;;;-144.99;93.37;52633.59;5068970;28;20023;-77
2023/12/25 08:24:19;;;;;;;;;;;;;;;-144.99;93.74;52662.13;5068792;28;20014;-75
2023/12/25 08:26:47;;;;;;;;;;;;;;;-144.99;93.38;52676.38;5069978;28;19947;-80
2023/12/25 08:29:14;;;;;;;;;;;;;;;-144.99;93.99;52660.09;5063478;28;19940;-77
2023/12/25 08:31:40;;;;;;;;;;;;;;;-144.99;94.08;52641.72;5068034;28;20402;-75
2023/12/25 08:34:07;;;;;;;;;;;;;;;-144.99;94.44;52692.69;5061986;28;20099;-78
2023/12/25 08:36:33;;;;;;;;;;;;;;;-144.99;94.08;52635.63;5068297;28;19928;-76
2023/12/25 08:39:00;;;;;;;;;;;;;;;-144.99;93.86;52668.22;5072013;28;20429;-76
2023/12/25 08:41:26;;;;;;;;;;;;;;;-144.99;94.13;52680.47;5067019;28;19986;-76
2023/12/25 08:43:54;;;;;;;;;;;;;;;-144.99;94.30;52623.38;5070994;28;20388;-76
2023/12/25 08:46:20;;;;;;;;;;;;;;;-144.99;93.92;52668.22;5072223;28;20662;-75
2023/12/25 08:48:48;;;;;;;;;;;;;;;-144.99;94.06;52649.88;5065611;28;20088;-76
2023/12/25 08:51:14;;;;;;;;;;;;;;;-144.99;93.57;52621.34;5071620;28;19972;-76
2023/12/25 08:53:41;;;;;;;;;;;;;;;-144.99;94.24;52676.38;5064863;28;19925;-76
2023/12/25 08:56:07;;;;;;;;;;;;;;;-144.99;94.08;52692.69;5078247;28;19978;-77
2023/12/25 08:58:33;;;;;;;;;;;;;;;-144.99;93.68;52656.00;5068435;28;19972;-77
2023/12/25 09:01:02;;;;;;;;;;;;;;;-144.99;93.99;52688.63;5072780;28;19984;-76
2023/12/25 09:03:28;;;;;;;;;;;;;;;-144.99;93.47;52631.53;5072490;28;20355;-76
2023/12/25 09:05:55;;;;;;;;;;;;;;;-144.99;92.84;52647.84;5071066;28;20019;-77
2023/12/25 09:08:23;;;;;;;;;;;;;;;-144.99;92.59;52623.38;5056787;28;20415;-75
2023/12/25 09:10:50;;;;;;;;;;;;;;;-144.99;92.08;52590.78;5072383;28;20015;-77
2023/12/25 09:13:16;;;;;;;;;;;;;;;-144.99;91.37;52656.00;5072938;28;19992;-79
2023/12/25 09:15:43;;;;;;;;;;;;;;;-144.99;91.42;52598.94;5077642;28;20267;-76
2023/12/25 09:18:11;;;;;;;;;;;;;;;-144.99;91.14;52639.69;5072824;28;19929;-77
2023/12/25 09:20:38;;;;;;;;;;;;;;;-144.99;91.09;52617.28;5068242;28;20007;-75
2023/12/25 09:23:04;;;;;;;;;;;;;;;-144.99;90.88;52651.94;5065528;28;20413;-75
2023/12/25 09:25:30;;;;;;;;;;;;;;;-144.99;90.96;52627.47;5071410;28;19952;-76
2023/12/25 09:27:57;;;;;;;;;;;;;;;-144.99;90.52;52603.00;5072329;28;20238;-77
2023/12/25 09:30:23;;;;;;;;;;;;;;;-144.99;90.43;52631.53;5070745;28;20242;-77
2023/12/25 09:32:50;;;;;;;;;;;;;;;-144.99;90.63;52621.34;5060875;28;19928;-78
2023/12/25 09:35:18;;;;;;;;;;;;;;;-144.99;90.76;52621.34;5066914;28;20065;-77
2023/12/25 09:37:44;;;;;;;;;;;;;;;-144.99;90.65;52649.88;5055323;28;19939;-76
2023/12/25 09:40:11;;;;;;;;;;;;;;;-144.99;91.09;52639.69;5073848;28;19924;-77
2023/12/25 09:42:38;;;;;;;;;;;;;;;-144.99;90.96;52619.31;5065535;28;20376;-78
2023/12/25 09:45:05;;;;;;;;;;;;;;;-144.99;90.91;52572.44;5071501;28;19955;-77
2023/12/25 09:47:31;;;;;;;;;;;;;;;-144.99;89.72;52611.16;5071494;28;20002;-78
2023/12/25 09:49:58;;;;;;;;;;;;;;;-144.99;88.73;52631.53;5069309;28;19981;-77
2023/12/25 09:52:26;;;;;;;;;;;;;;;-144.99;88.99;52594.84;5068877;28;20202;-78
2023/12/25 09:54:53;;;;;;;;;;;;;;;-144.99;89.27;52639.69;5085926;28;19940;-78
2023/12/25 09:57:20;;;;;;;;;;;;;;;-144.99;89.65;52582.63;5077147;28;20020;-74
2023/12/25 09:59:49;;;;;;;;;;;;;;;-144.99;89.84;52607.09;5063888;28;20039;-76
2023/12/25 10:02:16;;;;;;;;;;;;;;;-144.99;89.25;52582.63;5066856;28;20376;-76
2023/12/25 10:04:43;;;;;;;;;;;;;;;-144.99;89.41;52676.38;5061591;28;20015;-78
2023/12/25 10:07:10;;;;;;;;;;;;;;;-144.99;89.22;52623.38;5071347;28;20368;-77
2023/12/25 10:09:38;;;;;;;;;;;;;;;-144.99;89.39;52611.16;5068817;28;19964;-79
2023/12/25 10:12:05;;;;;;;;;;;;;;;-144.99;89.37;52660.09;5069932;28;20022;-76
2023/12/25 10:14:31;;;;;;;;;;;;;;;-144.99;87.62;52537.78;5070176;28;19924;-76
2023/12/25 10:16:59;;;;;;;;;;;;;;;-144.99;85.00;52574.47;5070137;28;20177;-78
2023/12/25 10:19:26;;;;;;;;;;;;;;;-144.99;82.25;52566.31;5066514;28;20400;-76
2023/12/25 10:21:53;;;;;;;;;;;;;;;-144.99;81.07;52541.84;5063029;28;19935;-77
2023/12/25 10:24:25;;;;;;;;;;;;;;;-144.99;80.46;52554.09;5070824;28;19939;-77
2023/12/25 10:26:54;;;;;;;;;;;;;;;-144.99;79.03;52539.81;5075122;28;19974;-76
2023/12/25 10:29:20;;;;;;;;;;;;;;;-144.99;77.32;52494.97;5069880;28;19928;-76
2023/12/25 10:31:47;;;;;;;;;;;;;;;-144.99;75.88;52484.78;5070378;28;19971;-76
2023/12/25 10:34:19;;;;;;;;;;;;;;;-144.99;73.93;52460.31;5083474;28;19916;-77
2023/12/25 10:36:47;;;;;;;;;;;;;;;-144.99;73.36;52497.00;5067687;28;19925;-76
2023/12/25 10:39:14;;;;;;;;;;;;;;;-144.99;73.98;52484.78;5070206;28;19964;-76
2023/12/25 10:41:42;;;;;;;;;;;;;;;-144.99;73.99;52499.06;5071666;28;19985;-75
2023/12/25 10:44:10;;;;;;;;;;;;;;;-144.99;72.42;52448.09;5071722;28;19947;-75
2023/12/25 10:46:37;;;;;;;;;;;;;;;-144.99;71.54;52427.72;5061343;28;19939;-77
2023/12/25 10:49:04;;;;;;;;;;;;;;;-144.99;71.36;52480.72;5082987;28;19920;-81
2023/12/25 10:51:33;;;;;;;;;;;;;;;-144.99;72.26;52427.72;5088746;28;19912;-77
2023/12/25 10:54:00;;;;;;;;;;;;;;;-144.99;72.49;52482.75;5071842;28;19943;-77
2023/12/25 10:56:27;;;;;;;;;;;;;;;-144.99;72.21;52480.72;5063384;28;19948;-78
2023/12/25 10:58:54;;;;;;;;;;;;;;;-144.99;74.21;52448.09;5061265;28;20425;-76
2023/12/25 11:01:25;;;;;;;;;;;;;;;-144.99;73.49;52452.16;5058898;28;20304;-77
2023/12/25 11:03:52;;;;;;;;;;;;;;;-144.99;72.49;52484.78;5065632;28;20005;-77
2023/12/25 11:06:19;;;;;;;;;;;;;;;-144.99;74.07;52444.03;5072071;28;19924;-73
2023/12/25 11:08:46;;;;;;;;;;;;;;;-144.99;72.99;52472.56;5089396;28;19932;-75
2023/12/25 11:11:14;;;;;;;;;;;;;;;-144.99;74.48;52497.00;5069603;28;19924;-74
2023/12/25 11:13:40;;;;;;;;;;;;;;;-144.99;73.10;52452.16;5067542;28;19982;-75
2023/12/25 11:16:07;;;;;;;;;;;;;;;-144.99;71.60;52413.44;5079692;28;19925;-77
2023/12/25 11:18:37;;;;;;;;;;;;;;;-144.99;72.54;52439.94;5072842;28;19928;-76
2023/12/25 11:21:04;;;;;;;;;;;;;;;-144.99;71.81;52427.72;5074662;28;19929;-78
2023/12/25 11:23:31;;;;;;;;;;;;;;;-144.99;70.37;52427.72;5073986;28;19931;-75
2023/12/25 11:25:59;;;;;;;;;;;;;;;-144.99;70.82;52376.75;5077927;28;20019;-75
2023/12/25 11:28:25;;;;;;;;;;;;;;;-144.99;72.19;52403.25;5076381;28;19924;-79
2023/12/25 11:30:52;;;;;;;;;;;;;;;-144.99;70.67;52403.25;5090223;28;19931;-78
2023/12/25 11:33:19;;;;;;;;;;;;;;;-144.99;70.42;52407.31;5073753;28;20324;-73
2023/12/25 11:35:47;;;;;;;;;;;;;;;-144.99;70.87;52415.47;5065477;28;19931;-74
2023/12/25 11:38:29;;;;;;;;;;;;;;;-144.99;70.57;52450.13;5063967;28;19940;-77
2023/12/25 11:41:03;;;;;;;;;;;;;;;-144.99;70.01;52395.09;5066204;28;19928;-77
2023/12/25 11:43:33;;;;;;;;;;;;;;;-144.99;70.15;52448.09;5070195;28;20422;-77
2023/12/25 11:46:01;;;;;;;;;;;;;;;-144.99;70.41;52427.72;5066947;28;19925;-74
2023/12/25 11:48:28;;;;;;;;;;;;;;;-144.99;70.44;52411.41;5072761;28;19996;-73
2023/12/25 11:51:01;;;;;;;;;;;;;;;-144.99;69.82;52382.88;5086556;28;19929;-76
2023/12/25 11:53:37;;;;;;;;;;;;;;;-144.99;69.98;52433.81;5078937;28;20170;-75
2023/12/25 11:56:05;;;;;;;;;;;;;;;-144.99;69.55;52399.19;5074454;28;20431;-75
2023/12/25 11:58:31;;;;;;;;;;;;;;;-144.99;69.45;52411.41;5060433;28;19935;-75
2023/12/25 12:00:58;;;;;;;;;;;;;;;-144.99;68.82;52378.78;5069044;28;19964;-78
2023/12/25 12:03:24;;;;;;;;;;;;;;;-144.99;69.24;52399.19;5080054;28;19929;-81
2023/12/25 12:05:51;;;;;;;;;;;;;;;-144.99;69.37;52362.50;5091979;28;19912;-80
2023/12/25 12:08:19;;;;;;;;;;;;;;;-144.99;70.94;52435.88;5085699;28;19928;-79
2023/12/25 12:10:46;;;;;;;;;;;;;;;-144.99;70.83;52423.63;5081025;28;19967;-78
2023/12/25 12:13:12;;;;;;;;;;;;;;;-144.99;71.10;52423.63;5088902;28;19924;-78
2023/12/25 12:15:39;;;;;;;;;;;;;;;-144.99;70.59;52439.94;5089188;28;20308;-76
2023/12/25 12:18:06;;;;;;;;;;;;;;;-144.99;70.12;52460.31;5091956;28;19923;-79
2023/12/25 12:20:32;;;;;;;;;;;;;;;-144.99;70.44;52431.78;5099141;28;19913;-83
2023/12/25 12:22:59;;;;;;;;;;;;;;;-144.99;70.66;52419.56;5092418;28;19920;-78